createdAt,value
2022-10-28T00:07:29.523Z,8.39
2022-10-28T00:17:31.499Z,8.46
2022-10-28T00:27:33.501Z,8.53
2022-10-28T00:37:35.383Z,8.40
2022-10-28T00:47:43.387Z,8.23
2022-10-28T00:57:46.950Z,8.25
2022-10-28T01:07:51.883Z,8.30
2022-10-28T01:29:55.401Z,8.36
2022-10-28T01:40:26.454Z,8.24
2022-10-28T01:50:39.953Z,8.10
2022-10-28T02:00:43.641Z,8.10
2022-10-28T02:11:01.955Z,8.16
2022-10-28T02:21:11.834Z,8.23
2022-10-28T02:31:20.750Z,8.26
2022-10-28T02:41:30.339Z,8.14
2022-10-28T02:51:38.305Z,8.01
2022-10-28T03:01:40.410Z,8.07
2022-10-28T03:11:42.504Z,8.22
2022-10-28T03:21:44.589Z,8.35
2022-10-28T03:31:46.467Z,8.42
2022-10-28T03:41:48.393Z,8.34
2022-10-28T03:51:50.426Z,8.38
2022-10-28T04:01:52.403Z,8.43
2022-10-28T04:11:54.579Z,8.50
2022-10-28T04:21:56.711Z,8.46
2022-10-28T04:31:59.657Z,8.38
2022-10-28T04:42:01.583Z,8.36
2022-10-28T04:52:03.735Z,8.30
2022-10-28T05:02:05.748Z,8.33
2022-10-28T05:12:07.814Z,8.24
2022-10-28T05:22:10.019Z,8.02
2022-10-28T05:32:11.976Z,7.99
2022-10-28T05:42:13.869Z,7.93
2022-10-28T05:52:15.995Z,7.76
2022-10-28T06:02:17.911Z,7.88
2022-10-28T06:12:18.257Z,8.08
2022-10-28T06:22:20.237Z,8.28
2022-10-28T06:32:22.179Z,8.74
2022-10-28T06:42:24.071Z,9.23
2022-10-28T06:52:27.620Z,9.34
2022-10-28T07:02:29.601Z,9.58
2022-10-28T07:12:32.251Z,9.67
2022-10-28T07:22:34.317Z,10.36
2022-10-28T07:32:36.881Z,11.16
2022-10-28T07:42:38.816Z,11.81
2022-10-28T07:52:40.917Z,12.29
2022-10-28T08:02:42.788Z,12.69
2022-10-28T08:12:46.371Z,13.19
2022-10-28T08:22:48.816Z,13.65
2022-10-28T08:32:50.733Z,14.30
2022-10-28T08:42:57.056Z,14.15
2022-10-28T08:53:06.236Z,13.80
2022-10-28T09:03:20.680Z,13.83
2022-10-28T09:13:45.148Z,14.41
2022-10-28T09:23:55.117Z,15.43
2022-10-28T09:34:17.751Z,16.37
2022-10-28T09:44:52.245Z,16.24
2022-10-28T09:54:55.636Z,15.78
2022-10-28T10:04:59.108Z,15.66
2022-10-28T10:15:05.187Z,16.15
2022-10-28T10:25:19.996Z,16.35
2022-10-28T10:35:30.011Z,16.64
2022-10-28T10:45:32.007Z,16.52
2022-10-28T10:55:34.189Z,16.49
2022-10-28T11:05:38.568Z,16.62
2022-10-28T11:15:40.652Z,16.53
2022-10-28T11:25:51.702Z,16.27
2022-10-28T11:36:08.786Z,16.24
2022-10-28T11:46:37.233Z,16.33
2022-10-28T11:56:50.678Z,16.26
2022-10-28T12:07:18.584Z,16.14
2022-10-28T12:17:35.200Z,16.22
2022-10-28T12:27:42.743Z,16.39
2022-10-28T12:38:17.075Z,16.40
2022-10-28T12:48:47.139Z,16.29
2022-10-28T12:59:15.785Z,16.36
2022-10-28T13:09:38.800Z,16.48
2022-10-28T13:20:28.856Z,16.41
2022-10-28T13:30:32.444Z,16.29
2022-10-28T13:40:34.406Z,16.27
2022-10-28T13:50:37.570Z,16.09
2022-10-28T14:00:39.816Z,15.77
2022-10-28T14:10:58.865Z,15.75
2022-10-28T14:21:01.979Z,15.95
2022-10-28T14:31:15.168Z,15.94
2022-10-28T14:41:20.336Z,15.84
2022-10-28T14:51:26.855Z,15.88
2022-10-28T15:01:48.877Z,15.93
2022-10-28T15:11:59.242Z,15.64
2022-10-28T15:22:05.190Z,15.18
2022-10-28T15:32:11.013Z,15.04
2022-10-28T15:42:28.449Z,15.02
2022-10-28T15:52:37.008Z,14.99
2022-10-28T16:02:41.718Z,14.95
2022-10-28T16:12:47.685Z,14.84
2022-10-28T16:22:50.294Z,14.50
2022-10-28T16:32:52.922Z,14.26
2022-10-28T16:42:57.539Z,14.21
2022-10-28T16:52:59.828Z,14.29
2022-10-28T17:03:02.249Z,14.28
2022-10-28T17:13:04.554Z,14.38
2022-10-28T17:23:06.670Z,14.48
2022-10-28T17:33:09.624Z,14.46
2022-10-28T17:43:12.561Z,14.60
2022-10-28T17:53:21.979Z,14.70
2022-10-28T18:03:24.553Z,14.51
2022-10-28T18:13:28.197Z,14.37
2022-10-28T18:23:30.206Z,14.22
2022-10-28T18:33:34.022Z,13.91
2022-10-28T18:43:35.915Z,13.71
2022-10-28T18:53:41.403Z,13.56
2022-10-28T19:03:45.941Z,13.53
2022-10-28T19:13:49.024Z,13.51
2022-10-28T19:23:51.392Z,13.19
2022-10-28T19:33:54.719Z,12.97
2022-10-28T19:44:02.544Z,12.94
2022-10-28T19:54:07.670Z,13.14
2022-10-28T20:04:10.331Z,13.34
2022-10-28T20:14:13.181Z,13.53
2022-10-28T20:24:16.528Z,13.71
2022-10-28T20:34:19.592Z,13.79
2022-10-28T20:44:21.713Z,13.62
2022-10-28T20:54:23.564Z,13.52
2022-10-28T21:04:25.585Z,13.51
2022-10-28T21:14:27.443Z,13.48
2022-10-28T21:24:30.591Z,13.62
2022-10-28T21:34:32.638Z,13.78
2022-10-28T21:44:34.466Z,13.59
2022-10-28T21:54:36.265Z,13.26
2022-10-28T22:04:39.517Z,13.15
2022-10-28T22:14:41.390Z,12.93
2022-10-28T22:24:43.232Z,12.59
2022-10-28T22:34:45.087Z,12.27
2022-10-28T22:44:47.048Z,12.13
2022-10-28T22:54:48.875Z,12.12
2022-10-28T23:04:50.726Z,12.10
2022-10-28T23:14:52.550Z,11.93
2022-10-28T23:24:54.370Z,11.92
2022-10-28T23:34:56.426Z,12.04
2022-10-28T23:44:58.241Z,12.07
2022-10-28T23:55:04.799Z,12.03
